sensor_id;sensor_type;location;lat;lon;timestamp;temperature;humidity
67759;SHT31;54562;47.620;18.786;2022-07-29T00:01:38;23.00;49.20
67759;SHT31;54562;47.620;18.786;2022-07-29T00:04:43;22.96;49.28
67759;SHT31;54562;47.620;18.786;2022-07-29T00:07:48;22.93;49.36
67759;SHT31;54562;47.620;18.786;2022-07-29T00:10:52;22.90;49.47
67759;SHT31;54562;47.620;18.786;2022-07-29T00:13:57;22.87;49.60
67759;SHT31;54562;47.620;18.786;2022-07-29T00:17:02;22.87;49.67
67759;SHT31;54562;47.620;18.786;2022-07-29T00:20:08;22.87;49.78
67759;SHT31;54562;47.620;18.786;2022-07-29T00:23:13;22.88;49.81
67759;SHT31;54562;47.620;18.786;2022-07-29T00:26:18;22.86;49.83
67759;SHT31;54562;47.620;18.786;2022-07-29T00:29:23;22.84;49.91
67759;SHT31;54562;47.620;18.786;2022-07-29T00:32:36;22.83;49.97
67759;SHT31;54562;47.620;18.786;2022-07-29T00:35:42;22.83;50.07
67759;SHT31;54562;47.620;18.786;2022-07-29T00:38:47;22.82;50.05
67759;SHT31;54562;47.620;18.786;2022-07-29T00:41:52;22.83;50.00
67759;SHT31;54562;47.620;18.786;2022-07-29T00:44:57;22.85;49.99
67759;SHT31;54562;47.620;18.786;2022-07-29T00:48:07;22.84;50.02
67759;SHT31;54562;47.620;18.786;2022-07-29T00:51:12;22.82;50.08
67759;SHT31;54562;47.620;18.786;2022-07-29T00:54:17;22.82;50.06
67759;SHT31;54562;47.620;18.786;2022-07-29T00:57:22;22.80;50.16
67759;SHT31;54562;47.620;18.786;2022-07-29T01:00:27;22.75;50.26
67759;SHT31;54562;47.620;18.786;2022-07-29T01:03:33;22.69;50.46
67759;SHT31;54562;47.620;18.786;2022-07-29T01:06:38;22.67;50.53
67759;SHT31;54562;47.620;18.786;2022-07-29T01:09:43;22.65;50.60
67759;SHT31;54562;47.620;18.786;2022-07-29T01:12:50;22.61;50.63
67759;SHT31;54562;47.620;18.786;2022-07-29T01:16:01;22.58;50.76
67759;SHT31;54562;47.620;18.786;2022-07-29T01:19:18;22.54;50.78
67759;SHT31;54562;47.620;18.786;2022-07-29T01:22:58;22.51;50.93
67759;SHT31;54562;47.620;18.786;2022-07-29T01:29:52;22.45;51.23
67759;SHT31;54562;47.620;18.786;2022-07-29T01:33:02;22.43;51.17
67759;SHT31;54562;47.620;18.786;2022-07-29T01:36:13;22.42;51.33
67759;SHT31;54562;47.620;18.786;2022-07-29T01:39:27;22.40;51.43
67759;SHT31;54562;47.620;18.786;2022-07-29T01:42:38;22.39;51.40
67759;SHT31;54562;47.620;18.786;2022-07-29T01:45:50;22.39;51.48
67759;SHT31;54562;47.620;18.786;2022-07-29T01:49:05;22.39;51.48
67759;SHT31;54562;47.620;18.786;2022-07-29T01:52:19;22.36;51.48
67759;SHT31;54562;47.620;18.786;2022-07-29T01:55:31;22.34;51.64
67759;SHT31;54562;47.620;18.786;2022-07-29T01:58:41;22.33;51.64
67759;SHT31;54562;47.620;18.786;2022-07-29T02:01:48;22.31;51.74
67759;SHT31;54562;47.620;18.786;2022-07-29T02:04:56;22.29;51.82
67759;SHT31;54562;47.620;18.786;2022-07-29T02:08:05;22.27;51.87
67759;SHT31;54562;47.620;18.786;2022-07-29T02:11:12;22.23;51.97
67759;SHT31;54562;47.620;18.786;2022-07-29T02:14:18;22.20;52.05
67759;SHT31;54562;47.620;18.786;2022-07-29T02:17:26;22.17;52.15
67759;SHT31;54562;47.620;18.786;2022-07-29T02:20:40;22.13;52.23
67759;SHT31;54562;47.620;18.786;2022-07-29T02:23:48;22.10;52.41
67759;SHT31;54562;47.620;18.786;2022-07-29T02:26:55;22.05;52.51
67759;SHT31;54562;47.620;18.786;2022-07-29T02:30:03;22.03;52.50
67759;SHT31;54562;47.620;18.786;2022-07-29T02:33:13;22.02;52.58
67759;SHT31;54562;47.620;18.786;2022-07-29T02:36:21;22.01;52.64
67759;SHT31;54562;47.620;18.786;2022-07-29T02:39:27;21.99;52.72
67759;SHT31;54562;47.620;18.786;2022-07-29T02:42:34;22.00;52.69
67759;SHT31;54562;47.620;18.786;2022-07-29T02:45:43;21.99;52.67
67759;SHT31;54562;47.620;18.786;2022-07-29T02:48:55;21.97;52.67
67759;SHT31;54562;47.620;18.786;2022-07-29T02:52:08;21.95;52.81
67759;SHT31;54562;47.620;18.786;2022-07-29T02:55:25;21.93;52.84
67759;SHT31;54562;47.620;18.786;2022-07-29T02:58:37;21.91;52.92
67759;SHT31;54562;47.620;18.786;2022-07-29T03:01:48;21.90;52.98
67759;SHT31;54562;47.620;18.786;2022-07-29T03:04:54;21.91;53.08
67759;SHT31;54562;47.620;18.786;2022-07-29T03:08:03;21.92;53.03
67759;SHT31;54562;47.620;18.786;2022-07-29T03:11:11;21.94;52.96
67759;SHT31;54562;47.620;18.786;2022-07-29T03:14:17;21.95;53.00
67759;SHT31;54562;47.620;18.786;2022-07-29T03:17:24;21.97;52.97
67759;SHT31;54562;47.620;18.786;2022-07-29T03:20:30;21.99;52.92
67759;SHT31;54562;47.620;18.786;2022-07-29T03:23:35;22.00;52.90
67759;SHT31;54562;47.620;18.786;2022-07-29T03:26:45;22.02;52.87
67759;SHT31;54562;47.620;18.786;2022-07-29T03:29:50;22.01;52.89
67759;SHT31;54562;47.620;18.786;2022-07-29T03:32:55;22.01;52.88
67759;SHT31;54562;47.620;18.786;2022-07-29T03:36:00;22.02;52.88
67759;SHT31;54562;47.620;18.786;2022-07-29T03:39:05;22.02;52.79
67759;SHT31;54562;47.620;18.786;2022-07-29T03:42:12;22.03;52.82
67759;SHT31;54562;47.620;18.786;2022-07-29T03:45:20;22.04;52.79
67759;SHT31;54562;47.620;18.786;2022-07-29T03:48:27;22.08;52.71
67759;SHT31;54562;47.620;18.786;2022-07-29T03:51:37;22.11;52.68
67759;SHT31;54562;47.620;18.786;2022-07-29T03:54:42;22.14;52.62
67759;SHT31;54562;47.620;18.786;2022-07-29T03:57:48;22.16;52.59
67759;SHT31;54562;47.620;18.786;2022-07-29T04:00:54;22.19;52.53
67759;SHT31;54562;47.620;18.786;2022-07-29T04:04:00;22.24;52.47
67759;SHT31;54562;47.620;18.786;2022-07-29T04:07:06;22.27;52.40
67759;SHT31;54562;47.620;18.786;2022-07-29T04:10:17;22.32;52.32
67759;SHT31;54562;47.620;18.786;2022-07-29T04:13:33;22.35;52.29
67759;SHT31;54562;47.620;18.786;2022-07-29T04:16:38;22.38;52.28
67759;SHT31;54562;47.620;18.786;2022-07-29T04:19:42;22.42;52.21
67759;SHT31;54562;47.620;18.786;2022-07-29T04:22:47;22.46;52.20
67759;SHT31;54562;47.620;18.786;2022-07-29T04:25:52;22.49;52.18
67759;SHT31;54562;47.620;18.786;2022-07-29T04:28:57;22.53;52.13
67759;SHT31;54562;47.620;18.786;2022-07-29T04:32:02;22.57;52.08
67759;SHT31;54562;47.620;18.786;2022-07-29T04:35:08;22.62;52.00
67759;SHT31;54562;47.620;18.786;2022-07-29T04:38:13;22.68;51.96
67759;SHT31;54562;47.620;18.786;2022-07-29T04:41:18;22.75;51.85
67759;SHT31;54562;47.620;18.786;2022-07-29T04:44:24;22.80;51.75
67759;SHT31;54562;47.620;18.786;2022-07-29T04:47:30;22.87;51.68
67759;SHT31;54562;47.620;18.786;2022-07-29T04:50:37;22.94;51.57
67759;SHT31;54562;47.620;18.786;2022-07-29T04:53:42;23.00;51.50
67759;SHT31;54562;47.620;18.786;2022-07-29T04:56:47;23.06;51.41
67759;SHT31;54562;47.620;18.786;2022-07-29T04:59:52;23.11;51.24
67759;SHT31;54562;47.620;18.786;2022-07-29T05:02:57;23.17;51.17
67759;SHT31;54562;47.620;18.786;2022-07-29T05:06:02;23.22;51.11
67759;SHT31;54562;47.620;18.786;2022-07-29T05:09:07;23.23;51.05
67759;SHT31;54562;47.620;18.786;2022-07-29T05:12:12;23.26;51.01
67759;SHT31;54562;47.620;18.786;2022-07-29T05:15:17;23.31;50.95
67759;SHT31;54562;47.620;18.786;2022-07-29T05:18:23;23.39;50.83
67759;SHT31;54562;47.620;18.786;2022-07-29T05:21:28;23.49;50.64
67759;SHT31;54562;47.620;18.786;2022-07-29T05:24:32;23.58;50.43
67759;SHT31;54562;47.620;18.786;2022-07-29T05:27:37;23.68;50.30
67759;SHT31;54562;47.620;18.786;2022-07-29T05:30:42;23.80;50.03
67759;SHT31;54562;47.620;18.786;2022-07-29T05:33:47;23.91;49.84
67759;SHT31;54562;47.620;18.786;2022-07-29T05:36:52;24.01;49.63
67759;SHT31;54562;47.620;18.786;2022-07-29T05:39:57;24.11;49.48
67759;SHT31;54562;47.620;18.786;2022-07-29T05:43:01;24.23;49.17
67759;SHT31;54562;47.620;18.786;2022-07-29T05:46:06;24.37;49.01
67759;SHT31;54562;47.620;18.786;2022-07-29T05:49:11;24.53;48.63
67759;SHT31;54562;47.620;18.786;2022-07-29T05:52:29;24.68;48.22
67759;SHT31;54562;47.620;18.786;2022-07-29T05:55:33;24.81;47.81
67759;SHT31;54562;47.620;18.786;2022-07-29T05:58:41;24.95;47.53
67759;SHT31;54562;47.620;18.786;2022-07-29T06:01:45;25.10;47.08
67759;SHT31;54562;47.620;18.786;2022-07-29T06:04:50;25.23;46.97
67759;SHT31;54562;47.620;18.786;2022-07-29T06:07:55;25.35;46.68
67759;SHT31;54562;47.620;18.786;2022-07-29T06:11:00;25.43;46.42
67759;SHT31;54562;47.620;18.786;2022-07-29T06:14:06;25.48;46.36
67759;SHT31;54562;47.620;18.786;2022-07-29T06:17:11;25.40;46.22
67759;SHT31;54562;47.620;18.786;2022-07-29T06:20:16;25.38;46.54
67759;SHT31;54562;47.620;18.786;2022-07-29T06:23:28;25.49;46.05
67759;SHT31;54562;47.620;18.786;2022-07-29T06:26:33;25.59;45.61
67759;SHT31;54562;47.620;18.786;2022-07-29T06:29:41;25.65;45.69
67759;SHT31;54562;47.620;18.786;2022-07-29T06:32:48;25.72;45.63
67759;SHT31;54562;47.620;18.786;2022-07-29T06:35:53;25.83;45.83
67759;SHT31;54562;47.620;18.786;2022-07-29T06:38:58;25.93;45.28
67759;SHT31;54562;47.620;18.786;2022-07-29T06:42:05;26.04;45.39
67759;SHT31;54562;47.620;18.786;2022-07-29T06:45:10;26.21;45.47
67759;SHT31;54562;47.620;18.786;2022-07-29T06:48:15;26.35;45.13
67759;SHT31;54562;47.620;18.786;2022-07-29T06:51:20;26.38;44.75
67759;SHT31;54562;47.620;18.786;2022-07-29T06:54:26;26.41;44.85
67759;SHT31;54562;47.620;18.786;2022-07-29T06:57:31;26.58;45.08
67759;SHT31;54562;47.620;18.786;2022-07-29T07:00:36;26.78;44.75
67759;SHT31;54562;47.620;18.786;2022-07-29T07:03:41;26.94;44.27
67759;SHT31;54562;47.620;18.786;2022-07-29T07:06:46;27.08;44.35
67759;SHT31;54562;47.620;18.786;2022-07-29T07:09:51;27.26;44.00
67759;SHT31;54562;47.620;18.786;2022-07-29T07:12:56;27.37;43.43
67759;SHT31;54562;47.620;18.786;2022-07-29T07:16:01;27.40;43.32
67759;SHT31;54562;47.620;18.786;2022-07-29T07:19:07;27.48;43.30
67759;SHT31;54562;47.620;18.786;2022-07-29T07:22:15;27.55;43.22
67759;SHT31;54562;47.620;18.786;2022-07-29T07:25:20;27.63;42.98
67759;SHT31;54562;47.620;18.786;2022-07-29T07:28:25;27.73;42.93
67759;SHT31;54562;47.620;18.786;2022-07-29T07:31:30;27.88;42.76
67759;SHT31;54562;47.620;18.786;2022-07-29T07:34:35;28.06;42.60
67759;SHT31;54562;47.620;18.786;2022-07-29T07:37:40;28.27;42.45
67759;SHT31;54562;47.620;18.786;2022-07-29T07:40:45;28.42;41.67
67759;SHT31;54562;47.620;18.786;2022-07-29T07:43:52;28.52;41.53
67759;SHT31;54562;47.620;18.786;2022-07-29T07:46:58;28.63;41.34
67759;SHT31;54562;47.620;18.786;2022-07-29T07:50:13;28.74;41.29
67759;SHT31;54562;47.620;18.786;2022-07-29T07:53:23;28.84;40.97
67759;SHT31;54562;47.620;18.786;2022-07-29T07:56:28;28.97;40.84
67759;SHT31;54562;47.620;18.786;2022-07-29T07:59:36;29.06;40.31
67759;SHT31;54562;47.620;18.786;2022-07-29T08:02:42;29.10;40.32
67759;SHT31;54562;47.620;18.786;2022-07-29T08:05:47;29.18;40.69
67759;SHT31;54562;47.620;18.786;2022-07-29T08:08:53;29.34;39.97
67759;SHT31;54562;47.620;18.786;2022-07-29T08:12:18;29.47;39.60
67759;SHT31;54562;47.620;18.786;2022-07-29T08:15:23;29.54;39.64
67759;SHT31;54562;47.620;18.786;2022-07-29T08:18:29;29.64;39.65
67759;SHT31;54562;47.620;18.786;2022-07-29T08:21:34;29.74;39.48
67759;SHT31;54562;47.620;18.786;2022-07-29T08:24:39;29.80;38.91
67759;SHT31;54562;47.620;18.786;2022-07-29T08:27:54;29.85;38.78
67759;SHT31;54562;47.620;18.786;2022-07-29T08:30:58;29.90;38.69
67759;SHT31;54562;47.620;18.786;2022-07-29T08:34:03;30.00;38.80
67759;SHT31;54562;47.620;18.786;2022-07-29T08:37:09;30.16;38.61
67759;SHT31;54562;47.620;18.786;2022-07-29T08:40:15;30.31;38.37
67759;SHT31;54562;47.620;18.786;2022-07-29T08:43:20;30.46;38.08
67759;SHT31;54562;47.620;18.786;2022-07-29T08:46:25;30.60;37.69
67759;SHT31;54562;47.620;18.786;2022-07-29T08:49:30;30.71;37.47
67759;SHT31;54562;47.620;18.786;2022-07-29T08:52:39;30.88;37.47
67759;SHT31;54562;47.620;18.786;2022-07-29T08:55:45;31.03;37.07
67759;SHT31;54562;47.620;18.786;2022-07-29T08:58:53;31.16;36.67
67759;SHT31;54562;47.620;18.786;2022-07-29T09:02:00;31.27;36.60
67759;SHT31;54562;47.620;18.786;2022-07-29T09:05:07;31.35;36.33
67759;SHT31;54562;47.620;18.786;2022-07-29T09:08:13;31.45;36.33
67759;SHT31;54562;47.620;18.786;2022-07-29T09:11:18;31.52;36.29
67759;SHT31;54562;47.620;18.786;2022-07-29T09:14:24;31.66;35.75
67759;SHT31;54562;47.620;18.786;2022-07-29T09:17:41;31.72;35.42
67759;SHT31;54562;47.620;18.786;2022-07-29T09:20:51;31.79;35.65
67759;SHT31;54562;47.620;18.786;2022-07-29T09:24:14;31.98;35.38
67759;SHT31;54562;47.620;18.786;2022-07-29T09:27:19;32.11;34.73
67759;SHT31;54562;47.620;18.786;2022-07-29T09:30:28;32.20;34.90
67759;SHT31;54562;47.620;18.786;2022-07-29T09:33:34;32.38;34.53
67759;SHT31;54562;47.620;18.786;2022-07-29T09:36:41;32.49;34.05
67759;SHT31;54562;47.620;18.786;2022-07-29T09:39:48;32.66;33.79
67759;SHT31;54562;47.620;18.786;2022-07-29T09:42:53;32.82;33.60
67759;SHT31;54562;47.620;18.786;2022-07-29T09:46:09;32.97;32.78
67759;SHT31;54562;47.620;18.786;2022-07-29T09:49:15;33.12;31.77
67759;SHT31;54562;47.620;18.786;2022-07-29T09:52:20;33.27;31.38
67759;SHT31;54562;47.620;18.786;2022-07-29T09:55:25;33.45;31.54
67759;SHT31;54562;47.620;18.786;2022-07-29T09:58:31;33.59;31.29
67759;SHT31;54562;47.620;18.786;2022-07-29T10:01:36;33.44;30.65
67759;SHT31;54562;47.620;18.786;2022-07-29T10:04:41;33.16;30.76
67759;SHT31;54562;47.620;18.786;2022-07-29T10:07:47;32.94;31.23
67759;SHT31;54562;47.620;18.786;2022-07-29T10:11:08;32.70;30.92
67759;SHT31;54562;47.620;18.786;2022-07-29T10:14:14;32.42;31.17
67759;SHT31;54562;47.620;18.786;2022-07-29T10:17:20;32.18;31.49
67759;SHT31;54562;47.620;18.786;2022-07-29T10:20:26;31.99;31.59
67759;SHT31;54562;47.620;18.786;2022-07-29T10:23:31;31.87;31.52
67759;SHT31;54562;47.620;18.786;2022-07-29T10:26:48;31.74;31.57
67759;SHT31;54562;47.620;18.786;2022-07-29T10:29:54;31.67;31.88
67759;SHT31;54562;47.620;18.786;2022-07-29T10:36:44;31.89;30.97
67759;SHT31;54562;47.620;18.786;2022-07-29T10:40:00;31.75;31.70
67759;SHT31;54562;47.620;18.786;2022-07-29T10:43:43;31.70;31.96
67759;SHT31;54562;47.620;18.786;2022-07-29T10:47:10;31.67;31.77
67759;SHT31;54562;47.620;18.786;2022-07-29T10:50:28;31.61;31.53
67759;SHT31;54562;47.620;18.786;2022-07-29T10:54:03;31.71;31.91
67759;SHT31;54562;47.620;18.786;2022-07-29T10:57:12;31.96;31.72
67759;SHT31;54562;47.620;18.786;2022-07-29T11:00:28;31.93;31.77
67759;SHT31;54562;47.620;18.786;2022-07-29T11:03:45;31.87;31.36
67759;SHT31;54562;47.620;18.786;2022-07-29T11:07:08;31.75;30.59
67759;SHT31;54562;47.620;18.786;2022-07-29T11:10:23;31.76;30.73
67759;SHT31;54562;47.620;18.786;2022-07-29T11:17:12;32.89;30.48
67759;SHT31;54562;47.620;18.786;2022-07-29T11:20:31;33.39;30.13
67759;SHT31;54562;47.620;18.786;2022-07-29T11:23:52;33.76;28.73
67759;SHT31;54562;47.620;18.786;2022-07-29T11:27:31;33.85;28.52
67759;SHT31;54562;47.620;18.786;2022-07-29T11:30:49;33.95;28.55
67759;SHT31;54562;47.620;18.786;2022-07-29T11:34:12;33.88;28.66
67759;SHT31;54562;47.620;18.786;2022-07-29T11:37:31;33.71;28.93
67759;SHT31;54562;47.620;18.786;2022-07-29T11:44:55;33.45;29.28
67759;SHT31;54562;47.620;18.786;2022-07-29T11:48:25;33.79;29.53
67759;SHT31;54562;47.620;18.786;2022-07-29T11:51:36;34.25;28.62
67759;SHT31;54562;47.620;18.786;2022-07-29T11:54:50;34.52;28.23
67759;SHT31;54562;47.620;18.786;2022-07-29T11:58:11;34.83;28.13
67759;SHT31;54562;47.620;18.786;2022-07-29T12:01:27;35.21;28.17
67759;SHT31;54562;47.620;18.786;2022-07-29T12:04:49;35.60;28.00
67759;SHT31;54562;47.620;18.786;2022-07-29T12:07:58;35.81;26.57
67759;SHT31;54562;47.620;18.786;2022-07-29T12:11:17;35.75;26.17
67759;SHT31;54562;47.620;18.786;2022-07-29T12:14:26;35.58;26.12
67759;SHT31;54562;47.620;18.786;2022-07-29T12:17:37;35.53;26.18
67759;SHT31;54562;47.620;18.786;2022-07-29T12:20:45;35.53;26.31
67759;SHT31;54562;47.620;18.786;2022-07-29T12:24:06;35.39;26.13
67759;SHT31;54562;47.620;18.786;2022-07-29T12:27:16;35.23;26.45
67759;SHT31;54562;47.620;18.786;2022-07-29T12:30:35;35.28;26.19
67759;SHT31;54562;47.620;18.786;2022-07-29T12:33:54;34.84;26.12
67759;SHT31;54562;47.620;18.786;2022-07-29T12:37:02;34.37;26.57
67759;SHT31;54562;47.620;18.786;2022-07-29T12:40:14;33.95;27.15
67759;SHT31;54562;47.620;18.786;2022-07-29T12:43:23;33.63;27.90
67759;SHT31;54562;47.620;18.786;2022-07-29T12:46:31;33.50;28.23
67759;SHT31;54562;47.620;18.786;2022-07-29T12:49:41;33.93;28.25
67759;SHT31;54562;47.620;18.786;2022-07-29T12:52:49;34.48;27.84
67759;SHT31;54562;47.620;18.786;2022-07-29T12:55:58;34.88;26.79
67759;SHT31;54562;47.620;18.786;2022-07-29T12:59:27;35.07;26.30
67759;SHT31;54562;47.620;18.786;2022-07-29T13:02:36;34.81;26.32
67759;SHT31;54562;47.620;18.786;2022-07-29T13:05:46;34.32;26.71
67759;SHT31;54562;47.620;18.786;2022-07-29T13:08:59;33.92;27.42
67759;SHT31;54562;47.620;18.786;2022-07-29T13:12:11;33.71;27.28
67759;SHT31;54562;47.620;18.786;2022-07-29T13:15:19;33.98;27.28
67759;SHT31;54562;47.620;18.786;2022-07-29T13:18:29;34.40;26.96
67759;SHT31;54562;47.620;18.786;2022-07-29T13:21:39;34.75;26.72
67759;SHT31;54562;47.620;18.786;2022-07-29T13:24:51;34.94;26.02
67759;SHT31;54562;47.620;18.786;2022-07-29T13:28:02;35.03;26.28
67759;SHT31;54562;47.620;18.786;2022-07-29T13:31:10;35.38;26.15
67759;SHT31;54562;47.620;18.786;2022-07-29T13:34:18;35.62;25.66
67759;SHT31;54562;47.620;18.786;2022-07-29T13:37:27;35.80;25.18
67759;SHT31;54562;47.620;18.786;2022-07-29T13:40:37;35.86;25.11
67759;SHT31;54562;47.620;18.786;2022-07-29T13:43:45;35.92;25.26
67759;SHT31;54562;47.620;18.786;2022-07-29T13:46:53;36.06;25.17
67759;SHT31;54562;47.620;18.786;2022-07-29T13:50:01;36.18;24.98
67759;SHT31;54562;47.620;18.786;2022-07-29T13:53:13;36.14;24.97
67759;SHT31;54562;47.620;18.786;2022-07-29T13:56:28;36.15;24.80
67759;SHT31;54562;47.620;18.786;2022-07-29T13:59:37;36.18;25.00
67759;SHT31;54562;47.620;18.786;2022-07-29T14:02:46;36.52;25.18
67759;SHT31;54562;47.620;18.786;2022-07-29T14:05:54;36.89;25.15
67759;SHT31;54562;47.620;18.786;2022-07-29T14:09:03;37.07;24.58
67759;SHT31;54562;47.620;18.786;2022-07-29T14:12:12;36.94;24.02
67759;SHT31;54562;47.620;18.786;2022-07-29T14:15:20;36.87;24.49
67759;SHT31;54562;47.620;18.786;2022-07-29T14:18:28;36.89;24.41
67759;SHT31;54562;47.620;18.786;2022-07-29T14:21:35;37.02;24.83
67759;SHT31;54562;47.620;18.786;2022-07-29T14:24:43;37.24;24.52
67759;SHT31;54562;47.620;18.786;2022-07-29T14:27:51;37.30;24.51
67759;SHT31;54562;47.620;18.786;2022-07-29T14:31:00;37.31;24.33
67759;SHT31;54562;47.620;18.786;2022-07-29T14:34:08;37.29;24.34
67759;SHT31;54562;47.620;18.786;2022-07-29T14:37:16;37.25;24.23
67759;SHT31;54562;47.620;18.786;2022-07-29T14:40:24;37.34;24.56
67759;SHT31;54562;47.620;18.786;2022-07-29T14:43:32;37.37;23.76
67759;SHT31;54562;47.620;18.786;2022-07-29T14:46:41;37.00;23.75
67759;SHT31;54562;47.620;18.786;2022-07-29T14:49:51;36.75;24.15
67759;SHT31;54562;47.620;18.786;2022-07-29T14:52:59;36.66;24.34
67759;SHT31;54562;47.620;18.786;2022-07-29T14:56:07;36.75;24.53
67759;SHT31;54562;47.620;18.786;2022-07-29T14:59:34;36.94;24.30
67759;SHT31;54562;47.620;18.786;2022-07-29T15:02:42;36.91;24.27
67759;SHT31;54562;47.620;18.786;2022-07-29T15:06:05;36.95;24.20
67759;SHT31;54562;47.620;18.786;2022-07-29T15:09:13;36.96;24.19
67759;SHT31;54562;47.620;18.786;2022-07-29T15:12:21;36.97;24.22
67759;SHT31;54562;47.620;18.786;2022-07-29T15:15:29;36.87;24.16
67759;SHT31;54562;47.620;18.786;2022-07-29T15:18:37;36.87;24.20
67759;SHT31;54562;47.620;18.786;2022-07-29T15:21:45;36.83;24.16
67759;SHT31;54562;47.620;18.786;2022-07-29T15:24:53;36.71;24.00
67759;SHT31;54562;47.620;18.786;2022-07-29T15:28:01;36.52;24.02
67759;SHT31;54562;47.620;18.786;2022-07-29T15:31:11;36.49;24.44
67759;SHT31;54562;47.620;18.786;2022-07-29T15:34:19;36.46;24.37
67759;SHT31;54562;47.620;18.786;2022-07-29T15:37:27;36.22;24.55
67759;SHT31;54562;47.620;18.786;2022-07-29T15:40:51;36.03;24.87
67759;SHT31;54562;47.620;18.786;2022-07-29T15:43:59;35.96;24.88
67759;SHT31;54562;47.620;18.786;2022-07-29T15:47:07;35.88;25.17
67759;SHT31;54562;47.620;18.786;2022-07-29T15:50:18;35.71;25.02
67759;SHT31;54562;47.620;18.786;2022-07-29T15:53:26;35.45;25.37
67759;SHT31;54562;47.620;18.786;2022-07-29T15:56:37;35.32;25.64
67759;SHT31;54562;47.620;18.786;2022-07-29T15:59:45;35.14;25.84
67759;SHT31;54562;47.620;18.786;2022-07-29T16:02:53;34.92;25.98
67759;SHT31;54562;47.620;18.786;2022-07-29T16:06:02;34.78;26.13
67759;SHT31;54562;47.620;18.786;2022-07-29T16:09:10;34.65;26.36
67759;SHT31;54562;47.620;18.786;2022-07-29T16:12:19;34.54;26.35
67759;SHT31;54562;47.620;18.786;2022-07-29T16:15:27;34.40;26.38
67759;SHT31;54562;47.620;18.786;2022-07-29T16:18:33;34.18;26.59
67759;SHT31;54562;47.620;18.786;2022-07-29T16:21:41;33.97;26.69
67759;SHT31;54562;47.620;18.786;2022-07-29T16:24:49;33.77;26.91
67759;SHT31;54562;47.620;18.786;2022-07-29T16:27:57;33.57;27.11
67759;SHT31;54562;47.620;18.786;2022-07-29T16:31:05;33.39;26.96
67759;SHT31;54562;47.620;18.786;2022-07-29T16:34:14;33.25;27.13
67759;SHT31;54562;47.620;18.786;2022-07-29T16:37:21;33.13;27.42
67759;SHT31;54562;47.620;18.786;2022-07-29T16:40:35;33.05;27.40
67759;SHT31;54562;47.620;18.786;2022-07-29T16:43:43;32.99;27.80
67759;SHT31;54562;47.620;18.786;2022-07-29T16:46:52;32.89;27.99
67759;SHT31;54562;47.620;18.786;2022-07-29T16:50:02;32.84;28.23
67759;SHT31;54562;47.620;18.786;2022-07-29T16:53:11;32.79;28.46
67759;SHT31;54562;47.620;18.786;2022-07-29T16:56:19;32.73;28.63
67759;SHT31;54562;47.620;18.786;2022-07-29T16:59:28;32.67;28.62
67759;SHT31;54562;47.620;18.786;2022-07-29T17:02:45;32.61;28.67
67759;SHT31;54562;47.620;18.786;2022-07-29T17:05:54;32.51;28.87
67759;SHT31;54562;47.620;18.786;2022-07-29T17:09:02;32.44;28.92
67759;SHT31;54562;47.620;18.786;2022-07-29T17:12:12;32.37;29.14
67759;SHT31;54562;47.620;18.786;2022-07-29T17:15:19;32.32;29.51
67759;SHT31;54562;47.620;18.786;2022-07-29T17:18:28;32.25;29.57
67759;SHT31;54562;47.620;18.786;2022-07-29T17:21:36;32.20;29.88
67759;SHT31;54562;47.620;18.786;2022-07-29T17:24:51;32.13;29.63
67759;SHT31;54562;47.620;18.786;2022-07-29T17:27:59;32.05;29.73
67759;SHT31;54562;47.620;18.786;2022-07-29T17:31:08;31.97;30.17
67759;SHT31;54562;47.620;18.786;2022-07-29T17:34:16;31.87;30.51
67759;SHT31;54562;47.620;18.786;2022-07-29T17:37:25;31.77;30.88
67759;SHT31;54562;47.620;18.786;2022-07-29T17:40:32;31.66;31.20
67759;SHT31;54562;47.620;18.786;2022-07-29T17:43:41;31.51;31.68
67759;SHT31;54562;47.620;18.786;2022-07-29T17:46:49;31.32;31.34
67759;SHT31;54562;47.620;18.786;2022-07-29T17:49:57;31.05;31.89
67759;SHT31;54562;47.620;18.786;2022-07-29T17:53:05;30.75;32.48
67759;SHT31;54562;47.620;18.786;2022-07-29T17:56:18;30.47;33.04
67759;SHT31;54562;47.620;18.786;2022-07-29T17:59:26;30.24;33.53
67759;SHT31;54562;47.620;18.786;2022-07-29T18:02:34;30.01;33.88
67759;SHT31;54562;47.620;18.786;2022-07-29T18:05:42;29.84;34.16
67759;SHT31;54562;47.620;18.786;2022-07-29T18:08:51;29.68;34.49
67759;SHT31;54562;47.620;18.786;2022-07-29T18:11:59;29.58;34.75
67759;SHT31;54562;47.620;18.786;2022-07-29T18:15:08;29.50;34.83
67759;SHT31;54562;47.620;18.786;2022-07-29T18:18:16;29.38;35.10
67759;SHT31;54562;47.620;18.786;2022-07-29T18:21:23;29.24;35.34
67759;SHT31;54562;47.620;18.786;2022-07-29T18:24:51;29.09;35.55
67759;SHT31;54562;47.620;18.786;2022-07-29T18:27:59;28.97;35.75
67759;SHT31;54562;47.620;18.786;2022-07-29T18:31:08;28.90;35.88
67759;SHT31;54562;47.620;18.786;2022-07-29T18:34:15;28.82;36.08
67759;SHT31;54562;47.620;18.786;2022-07-29T18:37:23;28.76;36.05
67759;SHT31;54562;47.620;18.786;2022-07-29T18:40:52;28.69;36.31
67759;SHT31;54562;47.620;18.786;2022-07-29T18:43:59;28.60;36.44
67759;SHT31;54562;47.620;18.786;2022-07-29T18:47:08;28.53;36.78
67759;SHT31;54562;47.620;18.786;2022-07-29T18:50:16;28.49;36.90
67759;SHT31;54562;47.620;18.786;2022-07-29T18:53:31;28.42;36.96
67759;SHT31;54562;47.620;18.786;2022-07-29T18:56:39;28.32;37.13
67759;SHT31;54562;47.620;18.786;2022-07-29T18:59:47;28.19;37.42
67759;SHT31;54562;47.620;18.786;2022-07-29T19:02:56;28.08;37.67
67759;SHT31;54562;47.620;18.786;2022-07-29T19:06:05;27.98;37.89
67759;SHT31;54562;47.620;18.786;2022-07-29T19:09:13;27.87;38.17
67759;SHT31;54562;47.620;18.786;2022-07-29T19:12:21;27.78;38.42
67759;SHT31;54562;47.620;18.786;2022-07-29T19:15:29;27.72;38.43
67759;SHT31;54562;47.620;18.786;2022-07-29T19:18:37;27.67;38.63
67759;SHT31;54562;47.620;18.786;2022-07-29T19:21:47;27.60;38.78
67759;SHT31;54562;47.620;18.786;2022-07-29T19:24:55;27.49;39.07
67759;SHT31;54562;47.620;18.786;2022-07-29T19:28:03;27.33;39.17
67759;SHT31;54562;47.620;18.786;2022-07-29T19:31:11;27.19;39.32
67759;SHT31;54562;47.620;18.786;2022-07-29T19:34:20;27.09;39.54
67759;SHT31;54562;47.620;18.786;2022-07-29T19:37:28;27.03;39.65
67759;SHT31;54562;47.620;18.786;2022-07-29T19:40:36;27.03;39.98
67759;SHT31;54562;47.620;18.786;2022-07-29T19:43:45;26.99;40.60
67759;SHT31;54562;47.620;18.786;2022-07-29T19:46:55;26.97;40.78
67759;SHT31;54562;47.620;18.786;2022-07-29T19:50:04;26.92;40.78